Current Weather

Montgomery County Airpark

Gaithersburg, Maryland (KGAI)

Report from: Sunday, May 19, 2024 2:56 AM EDT
Current time: Sunday, May 19, 2024 4:06 AM EDT

Nearby weather – Weather history – Daily summaries
Weather forecast

Present weatherMist
Temperature15.0°C (59.0°F)
Dew point15.0°C (59.0°F)
Winds Calm
Visibility6 mi. (9.7 km)
Clouds Ceiling: Overcast 2,400 ft. (732 m)
Altimeter29.99 in.Hg (1016 mB)
Relative humidity100 %
Density altitude118 ft. (36 m)
Sea-level pressure101.7 kPa (1017 mB, 30.02 in.Hg)
Remarks Fully automated report
Automated weather observing station with precipitation discriminator
Flight conditions Marginal Visual Meteorological Conditions
Raw dataKGAI 190656Z AUTO 00000KT 6SM BR OVC024 15/15 A2999 RMK AO2 SLP167 T01500150
An error has occurred. This application may no longer respond until reloaded. Reload 🗙